sensor_id;sensor_type;location;lat;lon;timestamp;temperature;humidity
3713;DHT22;1872;51.406;6.856;2023-08-01T00:00:49;17.20;99.90
3713;DHT22;1872;51.406;6.856;2023-08-01T00:03:14;17.30;99.90
3713;DHT22;1872;51.406;6.856;2023-08-01T00:05:41;17.20;99.90
3713;DHT22;1872;51.406;6.856;2023-08-01T00:08:10;17.20;99.90
3713;DHT22;1872;51.406;6.856;2023-08-01T00:10:38;17.20;99.90
3713;DHT22;1872;51.406;6.856;2023-08-01T00:13:03;17.20;99.90
3713;DHT22;1872;51.406;6.856;2023-08-01T00:15:29;17.20;99.90
3713;DHT22;1872;51.406;6.856;2023-08-01T00:17:55;17.20;99.90
3713;DHT22;1872;51.406;6.856;2023-08-01T00:20:20;17.20;99.90
3713;DHT22;1872;51.406;6.856;2023-08-01T00:22:46;17.10;99.90
3713;DHT22;1872;51.406;6.856;2023-08-01T00:25:12;17.10;99.90
3713;DHT22;1872;51.406;6.856;2023-08-01T00:27:40;17.10;99.90
3713;DHT22;1872;51.406;6.856;2023-08-01T00:30:08;17.00;99.90
3713;DHT22;1872;51.406;6.856;2023-08-01T00:32:37;17.00;99.90
3713;DHT22;1872;51.406;6.856;2023-08-01T00:35:03;16.90;99.90
3713;DHT22;1872;51.406;6.856;2023-08-01T00:37:29;16.90;99.90
3713;DHT22;1872;51.406;6.856;2023-08-01T00:43:04;16.90;99.90
3713;DHT22;1872;51.406;6.856;2023-08-01T00:45:30;16.90;99.90
3713;DHT22;1872;51.406;6.856;2023-08-01T00:47:56;16.90;99.90
3713;DHT22;1872;51.406;6.856;2023-08-01T00:50:24;16.90;99.90
3713;DHT22;1872;51.406;6.856;2023-08-01T00:52:52;16.80;99.90
3713;DHT22;1872;51.406;6.856;2023-08-01T00:55:18;16.90;99.90
3713;DHT22;1872;51.406;6.856;2023-08-01T00:57:44;16.90;99.90
3713;DHT22;1872;51.406;6.856;2023-08-01T01:00:14;16.90;99.90
3713;DHT22;1872;51.406;6.856;2023-08-01T01:02:40;16.80;99.90
3713;DHT22;1872;51.406;6.856;2023-08-01T01:05:06;16.90;99.90
3713;DHT22;1872;51.406;6.856;2023-08-01T01:07:34;16.80;99.90
3713;DHT22;1872;51.406;6.856;2023-08-01T01:10:00;16.80;99.90
3713;DHT22;1872;51.406;6.856;2023-08-01T01:12:26;16.90;99.90
3713;DHT22;1872;51.406;6.856;2023-08-01T01:14:53;16.90;99.90
3713;DHT22;1872;51.406;6.856;2023-08-01T01:17:19;16.90;99.90
3713;DHT22;1872;51.406;6.856;2023-08-01T01:19:45;16.90;99.90
3713;DHT22;1872;51.406;6.856;2023-08-01T01:22:13;16.90;99.90
3713;DHT22;1872;51.406;6.856;2023-08-01T01:24:41;16.90;99.90
3713;DHT22;1872;51.406;6.856;2023-08-01T01:27:08;16.90;99.90
3713;DHT22;1872;51.406;6.856;2023-08-01T01:29:35;16.90;99.90
3713;DHT22;1872;51.406;6.856;2023-08-01T01:32:05;16.90;99.90
3713;DHT22;1872;51.406;6.856;2023-08-01T01:34:31;16.90;99.90
3713;DHT22;1872;51.406;6.856;2023-08-01T01:36:57;16.90;99.90
3713;DHT22;1872;51.406;6.856;2023-08-01T01:39:25;16.90;99.90
3713;DHT22;1872;51.406;6.856;2023-08-01T01:41:51;16.90;99.90
3713;DHT22;1872;51.406;6.856;2023-08-01T01:44:17;16.90;99.90
3713;DHT22;1872;51.406;6.856;2023-08-01T01:46:42;17.00;99.90
3713;DHT22;1872;51.406;6.856;2023-08-01T01:49:08;17.00;99.90
3713;DHT22;1872;51.406;6.856;2023-08-01T01:51:33;17.00;99.90
3713;DHT22;1872;51.406;6.856;2023-08-01T01:53:59;17.00;99.90
3713;DHT22;1872;51.406;6.856;2023-08-01T01:56:25;17.00;99.90
3713;DHT22;1872;51.406;6.856;2023-08-01T01:58:50;16.90;99.90
3713;DHT22;1872;51.406;6.856;2023-08-01T02:01:16;16.90;99.90
3713;DHT22;1872;51.406;6.856;2023-08-01T02:03:42;16.80;99.90
3713;DHT22;1872;51.406;6.856;2023-08-01T02:06:07;16.80;99.90
3713;DHT22;1872;51.406;6.856;2023-08-01T02:08:33;16.70;99.90
3713;DHT22;1872;51.406;6.856;2023-08-01T02:10:58;16.70;99.90
3713;DHT22;1872;51.406;6.856;2023-08-01T02:13:26;16.60;99.90
3713;DHT22;1872;51.406;6.856;2023-08-01T02:15:51;16.60;99.90
3713;DHT22;1872;51.406;6.856;2023-08-01T02:18:17;16.60;99.90
3713;DHT22;1872;51.406;6.856;2023-08-01T02:20:43;16.50;99.90
3713;DHT22;1872;51.406;6.856;2023-08-01T02:23:08;16.50;99.90
3713;DHT22;1872;51.406;6.856;2023-08-01T02:25:39;16.50;99.90
3713;DHT22;1872;51.406;6.856;2023-08-01T02:28:05;16.40;99.90
3713;DHT22;1872;51.406;6.856;2023-08-01T02:30:31;16.40;99.90
3713;DHT22;1872;51.406;6.856;2023-08-01T02:32:57;16.40;99.90
3713;DHT22;1872;51.406;6.856;2023-08-01T02:35:22;16.40;99.90
3713;DHT22;1872;51.406;6.856;2023-08-01T02:37:49;16.30;99.90
3713;DHT22;1872;51.406;6.856;2023-08-01T02:40:15;16.30;99.90
3713;DHT22;1872;51.406;6.856;2023-08-01T02:42:40;16.30;99.90
3713;DHT22;1872;51.406;6.856;2023-08-01T02:45:06;16.30;99.90
3713;DHT22;1872;51.406;6.856;2023-08-01T02:47:32;16.30;99.90
3713;DHT22;1872;51.406;6.856;2023-08-01T02:50:00;16.40;99.90
3713;DHT22;1872;51.406;6.856;2023-08-01T02:52:27;16.40;99.90
3713;DHT22;1872;51.406;6.856;2023-08-01T02:54:53;16.40;99.90
3713;DHT22;1872;51.406;6.856;2023-08-01T02:57:19;16.40;99.90
3713;DHT22;1872;51.406;6.856;2023-08-01T02:59:47;16.40;99.90
3713;DHT22;1872;51.406;6.856;2023-08-01T03:02:12;16.40;99.90
3713;DHT22;1872;51.406;6.856;2023-08-01T03:04:39;16.40;99.90
3713;DHT22;1872;51.406;6.856;2023-08-01T03:07:05;16.40;99.90
3713;DHT22;1872;51.406;6.856;2023-08-01T03:09:32;16.40;99.90
3713;DHT22;1872;51.406;6.856;2023-08-01T03:11:58;16.40;99.90
3713;DHT22;1872;51.406;6.856;2023-08-01T03:14:23;16.40;99.90
3713;DHT22;1872;51.406;6.856;2023-08-01T03:16:49;16.50;99.90
3713;DHT22;1872;51.406;6.856;2023-08-01T03:19:15;16.50;99.90
3713;DHT22;1872;51.406;6.856;2023-08-01T03:21:43;16.50;99.90
3713;DHT22;1872;51.406;6.856;2023-08-01T03:24:09;16.40;99.90
3713;DHT22;1872;51.406;6.856;2023-08-01T03:26:35;16.40;99.90
3713;DHT22;1872;51.406;6.856;2023-08-01T03:29:01;16.40;99.90
3713;DHT22;1872;51.406;6.856;2023-08-01T03:31:27;16.40;99.90
3713;DHT22;1872;51.406;6.856;2023-08-01T03:33:53;16.30;99.90
3713;DHT22;1872;51.406;6.856;2023-08-01T03:36:21;16.30;99.90
3713;DHT22;1872;51.406;6.856;2023-08-01T03:38:46;16.30;99.90
3713;DHT22;1872;51.406;6.856;2023-08-01T03:41:13;16.30;99.90
3713;DHT22;1872;51.406;6.856;2023-08-01T03:43:41;16.30;99.90
3713;DHT22;1872;51.406;6.856;2023-08-01T03:46:07;16.20;99.90
3713;DHT22;1872;51.406;6.856;2023-08-01T03:48:33;16.30;99.90
3713;DHT22;1872;51.406;6.856;2023-08-01T03:50:58;16.20;99.90
3713;DHT22;1872;51.406;6.856;2023-08-01T03:53:24;16.20;99.90
3713;DHT22;1872;51.406;6.856;2023-08-01T03:55:52;16.20;99.90
3713;DHT22;1872;51.406;6.856;2023-08-01T03:58:18;16.20;99.90
3713;DHT22;1872;51.406;6.856;2023-08-01T04:00:46;16.30;99.90
3713;DHT22;1872;51.406;6.856;2023-08-01T04:03:11;16.20;99.90
3713;DHT22;1872;51.406;6.856;2023-08-01T04:05:37;16.30;99.90
3713;DHT22;1872;51.406;6.856;2023-08-01T04:08:03;16.20;99.90
3713;DHT22;1872;51.406;6.856;2023-08-01T04:10:29;16.20;99.90
3713;DHT22;1872;51.406;6.856;2023-08-01T04:12:54;16.20;99.90
3713;DHT22;1872;51.406;6.856;2023-08-01T04:15:20;16.20;99.90
3713;DHT22;1872;51.406;6.856;2023-08-01T04:17:46;16.20;99.90
3713;DHT22;1872;51.406;6.856;2023-08-01T04:20:14;16.20;99.90
3713;DHT22;1872;51.406;6.856;2023-08-01T04:22:39;16.20;99.90
3713;DHT22;1872;51.406;6.856;2023-08-01T04:25:05;16.20;99.90
3713;DHT22;1872;51.406;6.856;2023-08-01T04:27:33;16.30;99.90
3713;DHT22;1872;51.406;6.856;2023-08-01T04:29:59;16.30;99.90
3713;DHT22;1872;51.406;6.856;2023-08-01T04:32:27;16.30;99.90
3713;DHT22;1872;51.406;6.856;2023-08-01T04:34:53;16.30;99.90
3713;DHT22;1872;51.406;6.856;2023-08-01T04:37:18;16.30;99.90
3713;DHT22;1872;51.406;6.856;2023-08-01T04:39:47;16.20;99.90
3713;DHT22;1872;51.406;6.856;2023-08-01T04:42:13;16.20;99.90
3713;DHT22;1872;51.406;6.856;2023-08-01T04:44:39;16.20;99.90
3713;DHT22;1872;51.406;6.856;2023-08-01T04:47:05;16.10;99.90
3713;DHT22;1872;51.406;6.856;2023-08-01T04:49:30;16.10;99.90
3713;DHT22;1872;51.406;6.856;2023-08-01T04:51:56;16.20;99.90
3713;DHT22;1872;51.406;6.856;2023-08-01T04:54:22;16.10;99.90
3713;DHT22;1872;51.406;6.856;2023-08-01T04:56:50;16.10;99.90
3713;DHT22;1872;51.406;6.856;2023-08-01T04:59:15;16.10;99.90
3713;DHT22;1872;51.406;6.856;2023-08-01T05:01:41;16.10;99.90
3713;DHT22;1872;51.406;6.856;2023-08-01T05:04:07;16.10;99.90
3713;DHT22;1872;51.406;6.856;2023-08-01T05:06:32;16.10;99.90
3713;DHT22;1872;51.406;6.856;2023-08-01T05:08:58;16.10;99.90
3713;DHT22;1872;51.406;6.856;2023-08-01T05:11:24;16.20;99.90
3713;DHT22;1872;51.406;6.856;2023-08-01T05:13:50;16.20;99.90
3713;DHT22;1872;51.406;6.856;2023-08-01T05:16:15;16.30;99.90
3713;DHT22;1872;51.406;6.856;2023-08-01T05:18:41;16.30;99.90
3713;DHT22;1872;51.406;6.856;2023-08-01T05:21:09;16.30;99.90
3713;DHT22;1872;51.406;6.856;2023-08-01T05:23:35;16.40;99.90
3713;DHT22;1872;51.406;6.856;2023-08-01T05:26:00;16.30;99.90
3713;DHT22;1872;51.406;6.856;2023-08-01T05:28:28;16.30;99.90
3713;DHT22;1872;51.406;6.856;2023-08-01T05:30:54;16.40;99.90
3713;DHT22;1872;51.406;6.856;2023-08-01T05:33:20;16.30;99.90
3713;DHT22;1872;51.406;6.856;2023-08-01T05:35:48;16.40;99.90
3713;DHT22;1872;51.406;6.856;2023-08-01T05:38:14;16.40;99.90
3713;DHT22;1872;51.406;6.856;2023-08-01T05:40:41;16.40;99.90
3713;DHT22;1872;51.406;6.856;2023-08-01T05:43:09;16.40;99.90
3713;DHT22;1872;51.406;6.856;2023-08-01T05:45:36;16.50;99.90
3713;DHT22;1872;51.406;6.856;2023-08-01T05:48:10;16.40;99.90
3713;DHT22;1872;51.406;6.856;2023-08-01T05:50:36;16.50;99.90
3713;DHT22;1872;51.406;6.856;2023-08-01T05:53:01;16.50;99.90
3713;DHT22;1872;51.406;6.856;2023-08-01T05:55:27;16.50;99.90
3713;DHT22;1872;51.406;6.856;2023-08-01T05:57:53;16.60;99.90
3713;DHT22;1872;51.406;6.856;2023-08-01T06:00:21;16.60;99.90
3713;DHT22;1872;51.406;6.856;2023-08-01T06:02:47;16.50;99.90
3713;DHT22;1872;51.406;6.856;2023-08-01T06:05:12;16.50;99.90
3713;DHT22;1872;51.406;6.856;2023-08-01T06:07:38;16.60;99.90
3713;DHT22;1872;51.406;6.856;2023-08-01T06:10:04;16.60;99.90
3713;DHT22;1872;51.406;6.856;2023-08-01T06:12:31;16.60;99.90
3713;DHT22;1872;51.406;6.856;2023-08-01T06:14:56;16.60;99.90
3713;DHT22;1872;51.406;6.856;2023-08-01T06:17:23;16.60;99.90
3713;DHT22;1872;51.406;6.856;2023-08-01T06:19:51;16.60;99.90
3713;DHT22;1872;51.406;6.856;2023-08-01T06:22:18;16.60;99.90
3713;DHT22;1872;51.406;6.856;2023-08-01T06:24:43;16.60;99.90
3713;DHT22;1872;51.406;6.856;2023-08-01T06:27:11;16.60;99.90
3713;DHT22;1872;51.406;6.856;2023-08-01T06:29:39;16.60;99.90
3713;DHT22;1872;51.406;6.856;2023-08-01T06:32:12;16.70;99.90
3713;DHT22;1872;51.406;6.856;2023-08-01T06:34:38;16.70;99.90
3713;DHT22;1872;51.406;6.856;2023-08-01T06:37:04;16.70;99.90
3713;DHT22;1872;51.406;6.856;2023-08-01T06:39:30;16.80;99.90
3713;DHT22;1872;51.406;6.856;2023-08-01T06:41:55;16.90;99.90
3713;DHT22;1872;51.406;6.856;2023-08-01T06:44:45;17.00;99.90
3713;DHT22;1872;51.406;6.856;2023-08-01T06:47:11;17.10;99.90
3713;DHT22;1872;51.406;6.856;2023-08-01T06:49:37;17.10;99.90
3713;DHT22;1872;51.406;6.856;2023-08-01T06:52:03;17.10;99.90
3713;DHT22;1872;51.406;6.856;2023-08-01T06:54:30;17.10;99.90
3713;DHT22;1872;51.406;6.856;2023-08-01T06:56:57;17.20;99.90
3713;DHT22;1872;51.406;6.856;2023-08-01T06:59:24;17.10;99.90
3713;DHT22;1872;51.406;6.856;2023-08-01T07:01:50;17.20;99.90
3713;DHT22;1872;51.406;6.856;2023-08-01T07:04:15;17.20;99.90
3713;DHT22;1872;51.406;6.856;2023-08-01T07:06:42;17.30;99.90
3713;DHT22;1872;51.406;6.856;2023-08-01T07:09:08;17.30;99.90
3713;DHT22;1872;51.406;6.856;2023-08-01T07:11:34;17.30;99.90
3713;DHT22;1872;51.406;6.856;2023-08-01T07:13:59;17.30;99.90
3713;DHT22;1872;51.406;6.856;2023-08-01T07:16:25;17.40;99.90
3713;DHT22;1872;51.406;6.856;2023-08-01T07:18:50;17.40;99.90
3713;DHT22;1872;51.406;6.856;2023-08-01T07:21:16;17.50;99.90
3713;DHT22;1872;51.406;6.856;2023-08-01T07:23:42;17.50;99.90
3713;DHT22;1872;51.406;6.856;2023-08-01T07:26:09;17.60;99.90
3713;DHT22;1872;51.406;6.856;2023-08-01T07:28:35;17.70;99.90
3713;DHT22;1872;51.406;6.856;2023-08-01T07:31:02;17.70;99.90
3713;DHT22;1872;51.406;6.856;2023-08-01T07:33:28;17.60;99.90
3713;DHT22;1872;51.406;6.856;2023-08-01T07:35:54;17.60;99.90
3713;DHT22;1872;51.406;6.856;2023-08-01T07:38:22;17.70;99.90
3713;DHT22;1872;51.406;6.856;2023-08-01T07:40:50;17.70;99.90
3713;DHT22;1872;51.406;6.856;2023-08-01T07:43:16;17.80;99.90
3713;DHT22;1872;51.406;6.856;2023-08-01T07:45:42;17.90;99.90
3713;DHT22;1872;51.406;6.856;2023-08-01T07:48:08;17.80;99.90
3713;DHT22;1872;51.406;6.856;2023-08-01T07:50:33;17.80;99.90
3713;DHT22;1872;51.406;6.856;2023-08-01T07:53:01;17.80;99.90
3713;DHT22;1872;51.406;6.856;2023-08-01T07:55:27;17.70;99.90
3713;DHT22;1872;51.406;6.856;2023-08-01T07:57:54;17.70;99.90
3713;DHT22;1872;51.406;6.856;2023-08-01T08:00:20;17.60;99.90
3713;DHT22;1872;51.406;6.856;2023-08-01T08:02:46;17.70;99.90
3713;DHT22;1872;51.406;6.856;2023-08-01T08:05:12;17.80;99.90
3713;DHT22;1872;51.406;6.856;2023-08-01T08:11:00;18.20;99.90
3713;DHT22;1872;51.406;6.856;2023-08-01T08:13:27;18.30;99.90
3713;DHT22;1872;51.406;6.856;2023-08-01T08:15:58;18.30;99.90
3713;DHT22;1872;51.406;6.856;2023-08-01T08:18:46;18.40;99.90
3713;DHT22;1872;51.406;6.856;2023-08-01T08:21:11;18.50;99.90
3713;DHT22;1872;51.406;6.856;2023-08-01T08:23:38;18.50;99.90
3713;DHT22;1872;51.406;6.856;2023-08-01T08:26:03;18.50;99.90
3713;DHT22;1872;51.406;6.856;2023-08-01T08:28:31;18.50;99.90
3713;DHT22;1872;51.406;6.856;2023-08-01T08:30:58;18.40;99.90
3713;DHT22;1872;51.406;6.856;2023-08-01T08:33:25;18.30;99.90
3713;DHT22;1872;51.406;6.856;2023-08-01T08:35:50;18.20;99.90
3713;DHT22;1872;51.406;6.856;2023-08-01T08:38:17;18.20;99.90
3713;DHT22;1872;51.406;6.856;2023-08-01T08:43:20;18.30;99.90
3713;DHT22;1872;51.406;6.856;2023-08-01T08:45:47;18.40;99.90
3713;DHT22;1872;51.406;6.856;2023-08-01T08:48:18;18.50;99.90
3713;DHT22;1872;51.406;6.856;2023-08-01T08:50:45;18.80;99.90
3713;DHT22;1872;51.406;6.856;2023-08-01T08:53:11;19.10;99.90
3713;DHT22;1872;51.406;6.856;2023-08-01T08:55:40;19.40;99.90
3713;DHT22;1872;51.406;6.856;2023-08-01T08:58:06;19.50;99.90
3713;DHT22;1872;51.406;6.856;2023-08-01T09:00:32;19.60;99.90
3713;DHT22;1872;51.406;6.856;2023-08-01T09:02:57;19.60;99.90
3713;DHT22;1872;51.406;6.856;2023-08-01T09:08:50;19.90;99.90
3713;DHT22;1872;51.406;6.856;2023-08-01T09:11:17;20.20;99.90
3713;DHT22;1872;51.406;6.856;2023-08-01T09:13:43;20.30;99.90
3713;DHT22;1872;51.406;6.856;2023-08-01T09:16:10;20.30;99.90
3713;DHT22;1872;51.406;6.856;2023-08-01T09:18:47;20.40;99.90
3713;DHT22;1872;51.406;6.856;2023-08-01T09:21:12;20.40;99.90
3713;DHT22;1872;51.406;6.856;2023-08-01T09:23:38;20.40;99.90
3713;DHT22;1872;51.406;6.856;2023-08-01T09:26:14;20.50;99.90
3713;DHT22;1872;51.406;6.856;2023-08-01T09:28:40;20.60;99.90
3713;DHT22;1872;51.406;6.856;2023-08-01T09:31:10;20.60;99.90
3713;DHT22;1872;51.406;6.856;2023-08-01T09:33:40;20.70;99.90
3713;DHT22;1872;51.406;6.856;2023-08-01T09:36:07;20.80;99.90
3713;DHT22;1872;51.406;6.856;2023-08-01T09:38:37;20.90;99.90
3713;DHT22;1872;51.406;6.856;2023-08-01T09:41:04;20.90;99.90
3713;DHT22;1872;51.406;6.856;2023-08-01T09:43:37;20.90;99.90
3713;DHT22;1872;51.406;6.856;2023-08-01T09:46:03;20.90;99.90
3713;DHT22;1872;51.406;6.856;2023-08-01T09:48:31;20.70;99.90
3713;DHT22;1872;51.406;6.856;2023-08-01T09:51:07;20.60;99.90
3713;DHT22;1872;51.406;6.856;2023-08-01T09:53:35;20.30;99.90
3713;DHT22;1872;51.406;6.856;2023-08-01T09:56:01;20.20;99.90
3713;DHT22;1872;51.406;6.856;2023-08-01T09:58:32;20.10;99.90
3713;DHT22;1872;51.406;6.856;2023-08-01T10:01:00;20.10;99.90
3713;DHT22;1872;51.406;6.856;2023-08-01T10:03:30;20.30;99.90
3713;DHT22;1872;51.406;6.856;2023-08-01T10:05:56;20.40;99.90
3713;DHT22;1872;51.406;6.856;2023-08-01T10:08:23;20.60;99.90
3713;DHT22;1872;51.406;6.856;2023-08-01T10:10:50;20.70;99.90
3713;DHT22;1872;51.406;6.856;2023-08-01T10:13:17;20.80;99.90
3713;DHT22;1872;51.406;6.856;2023-08-01T10:15:44;20.80;99.90
3713;DHT22;1872;51.406;6.856;2023-08-01T10:18:10;20.80;99.90
3713;DHT22;1872;51.406;6.856;2023-08-01T10:20:37;20.80;99.90
3713;DHT22;1872;51.406;6.856;2023-08-01T10:23:05;20.80;99.90
3713;DHT22;1872;51.406;6.856;2023-08-01T10:25:31;20.80;99.90
3713;DHT22;1872;51.406;6.856;2023-08-01T10:27:59;20.80;99.90
3713;DHT22;1872;51.406;6.856;2023-08-01T10:30:26;20.90;99.90
3713;DHT22;1872;51.406;6.856;2023-08-01T10:32:57;20.90;99.90
3713;DHT22;1872;51.406;6.856;2023-08-01T10:35:36;20.90;99.90
3713;DHT22;1872;51.406;6.856;2023-08-01T10:38:11;20.90;99.90
3713;DHT22;1872;51.406;6.856;2023-08-01T10:40:42;20.90;99.90
3713;DHT22;1872;51.406;6.856;2023-08-01T10:43:21;20.80;99.90
3713;DHT22;1872;51.406;6.856;2023-08-01T10:45:47;20.60;99.90
3713;DHT22;1872;51.406;6.856;2023-08-01T10:48:48;20.40;99.90
3713;DHT22;1872;51.406;6.856;2023-08-01T10:51:16;20.00;99.90
3713;DHT22;1872;51.406;6.856;2023-08-01T10:53:42;19.60;99.90
3713;DHT22;1872;51.406;6.856;2023-08-01T10:56:08;19.30;99.90
3713;DHT22;1872;51.406;6.856;2023-08-01T10:58:40;19.20;99.90
3713;DHT22;1872;51.406;6.856;2023-08-01T11:01:06;19.00;99.90
3713;DHT22;1872;51.406;6.856;2023-08-01T11:03:39;18.90;99.90
3713;DHT22;1872;51.406;6.856;2023-08-01T11:06:05;18.90;99.90
3713;DHT22;1872;51.406;6.856;2023-08-01T11:11:59;19.00;99.90
3713;DHT22;1872;51.406;6.856;2023-08-01T11:14:27;19.00;99.90
3713;DHT22;1872;51.406;6.856;2023-08-01T11:16:57;19.00;99.90
3713;DHT22;1872;51.406;6.856;2023-08-01T11:19:28;18.90;99.90
3713;DHT22;1872;51.406;6.856;2023-08-01T11:21:54;18.70;99.90
3713;DHT22;1872;51.406;6.856;2023-08-01T11:24:24;18.50;99.90
3713;DHT22;1872;51.406;6.856;2023-08-01T11:26:51;18.40;99.90
3713;DHT22;1872;51.406;6.856;2023-08-01T11:29:19;18.30;99.90
3713;DHT22;1872;51.406;6.856;2023-08-01T11:31:58;18.30;99.90
3713;DHT22;1872;51.406;6.856;2023-08-01T11:34:24;18.30;99.90
3713;DHT22;1872;51.406;6.856;2023-08-01T11:36:50;18.30;99.90
3713;DHT22;1872;51.406;6.856;2023-08-01T11:39:16;18.40;99.90
3713;DHT22;1872;51.406;6.856;2023-08-01T11:41:43;18.40;99.90
3713;DHT22;1872;51.406;6.856;2023-08-01T11:44:09;18.40;99.90
3713;DHT22;1872;51.406;6.856;2023-08-01T11:46:38;18.40;99.90
3713;DHT22;1872;51.406;6.856;2023-08-01T11:49:06;18.40;99.90
3713;DHT22;1872;51.406;6.856;2023-08-01T11:51:39;18.40;99.90
3713;DHT22;1872;51.406;6.856;2023-08-01T11:54:08;18.40;99.90
3713;DHT22;1872;51.406;6.856;2023-08-01T11:56:38;18.40;99.90
3713;DHT22;1872;51.406;6.856;2023-08-01T11:59:10;18.40;99.90
3713;DHT22;1872;51.406;6.856;2023-08-01T12:01:45;18.40;99.90
3713;DHT22;1872;51.406;6.856;2023-08-01T12:04:24;18.40;99.90
3713;DHT22;1872;51.406;6.856;2023-08-01T12:06:50;18.50;99.90
3713;DHT22;1872;51.406;6.856;2023-08-01T12:09:16;18.50;99.90
3713;DHT22;1872;51.406;6.856;2023-08-01T12:11:44;18.50;99.90
3713;DHT22;1872;51.406;6.856;2023-08-01T12:14:25;18.50;99.90
3713;DHT22;1872;51.406;6.856;2023-08-01T12:16:51;18.50;99.90
3713;DHT22;1872;51.406;6.856;2023-08-01T12:19:18;18.40;99.90
3713;DHT22;1872;51.406;6.856;2023-08-01T12:21:52;18.40;99.90
3713;DHT22;1872;51.406;6.856;2023-08-01T12:24:18;18.50;99.90
3713;DHT22;1872;51.406;6.856;2023-08-01T12:26:46;18.50;99.90
3713;DHT22;1872;51.406;6.856;2023-08-01T12:29:14;18.60;99.90
3713;DHT22;1872;51.406;6.856;2023-08-01T12:31:39;18.60;99.90
3713;DHT22;1872;51.406;6.856;2023-08-01T12:34:05;18.70;99.90
3713;DHT22;1872;51.406;6.856;2023-08-01T12:36:31;18.70;99.90
3713;DHT22;1872;51.406;6.856;2023-08-01T12:38:56;18.70;99.90
3713;DHT22;1872;51.406;6.856;2023-08-01T12:41:22;18.80;99.90
3713;DHT22;1872;51.406;6.856;2023-08-01T12:43:48;18.80;99.90
3713;DHT22;1872;51.406;6.856;2023-08-01T12:46:13;18.90;99.90
3713;DHT22;1872;51.406;6.856;2023-08-01T12:48:39;19.00;99.90
3713;DHT22;1872;51.406;6.856;2023-08-01T12:51:05;19.10;99.90
3713;DHT22;1872;51.406;6.856;2023-08-01T12:53:31;19.20;99.90
3713;DHT22;1872;51.406;6.856;2023-08-01T12:55:56;19.40;99.90
3713;DHT22;1872;51.406;6.856;2023-08-01T12:58:22;19.50;99.90
3713;DHT22;1872;51.406;6.856;2023-08-01T13:00:48;19.60;99.90
3713;DHT22;1872;51.406;6.856;2023-08-01T13:03:14;19.60;99.90
3713;DHT22;1872;51.406;6.856;2023-08-01T13:05:40;19.50;99.90
3713;DHT22;1872;51.406;6.856;2023-08-01T13:08:07;19.50;99.90
3713;DHT22;1872;51.406;6.856;2023-08-01T13:10:33;19.40;99.90
3713;DHT22;1872;51.406;6.856;2023-08-01T13:13:00;19.30;99.90
3713;DHT22;1872;51.406;6.856;2023-08-01T13:15:26;19.30;99.90
3713;DHT22;1872;51.406;6.856;2023-08-01T13:17:52;19.30;99.90
3713;DHT22;1872;51.406;6.856;2023-08-01T13:20:18;19.30;99.90
3713;DHT22;1872;51.406;6.856;2023-08-01T13:22:46;19.30;99.90
3713;DHT22;1872;51.406;6.856;2023-08-01T13:25:13;19.20;99.90
3713;DHT22;1872;51.406;6.856;2023-08-01T13:27:39;19.10;99.90
3713;DHT22;1872;51.406;6.856;2023-08-01T13:30:05;18.90;99.90
3713;DHT22;1872;51.406;6.856;2023-08-01T13:32:31;18.80;99.90
3713;DHT22;1872;51.406;6.856;2023-08-01T13:34:58;18.60;99.90
3713;DHT22;1872;51.406;6.856;2023-08-01T13:37:24;18.50;99.90
3713;DHT22;1872;51.406;6.856;2023-08-01T13:39:50;18.40;99.90
3713;DHT22;1872;51.406;6.856;2023-08-01T13:42:15;18.40;99.90
3713;DHT22;1872;51.406;6.856;2023-08-01T13:44:41;18.30;99.90
3713;DHT22;1872;51.406;6.856;2023-08-01T13:47:07;18.30;99.90
3713;DHT22;1872;51.406;6.856;2023-08-01T13:49:35;18.40;99.90
3713;DHT22;1872;51.406;6.856;2023-08-01T13:52:01;18.40;99.90
3713;DHT22;1872;51.406;6.856;2023-08-01T13:54:30;18.50;99.90
3713;DHT22;1872;51.406;6.856;2023-08-01T13:56:56;18.50;99.90
3713;DHT22;1872;51.406;6.856;2023-08-01T13:59:23;18.60;99.90
3713;DHT22;1872;51.406;6.856;2023-08-01T14:01:49;18.70;99.90
3713;DHT22;1872;51.406;6.856;2023-08-01T14:04:14;18.80;99.90
3713;DHT22;1872;51.406;6.856;2023-08-01T14:06:41;18.80;99.90
3713;DHT22;1872;51.406;6.856;2023-08-01T14:09:17;18.80;99.90
3713;DHT22;1872;51.406;6.856;2023-08-01T14:11:43;18.80;99.90
3713;DHT22;1872;51.406;6.856;2023-08-01T14:14:09;18.80;99.90
3713;DHT22;1872;51.406;6.856;2023-08-01T14:16:34;18.80;99.90
3713;DHT22;1872;51.406;6.856;2023-08-01T14:19:00;18.90;99.90
3713;DHT22;1872;51.406;6.856;2023-08-01T14:21:26;18.90;99.90
3713;DHT22;1872;51.406;6.856;2023-08-01T14:23:52;18.90;99.90
3713;DHT22;1872;51.406;6.856;2023-08-01T14:26:18;18.90;99.90
3713;DHT22;1872;51.406;6.856;2023-08-01T14:28:44;19.00;99.90
3713;DHT22;1872;51.406;6.856;2023-08-01T14:31:10;19.00;99.90
3713;DHT22;1872;51.406;6.856;2023-08-01T14:33:36;19.10;99.90
3713;DHT22;1872;51.406;6.856;2023-08-01T14:36:02;19.10;99.90
3713;DHT22;1872;51.406;6.856;2023-08-01T14:38:32;19.10;99.90
3713;DHT22;1872;51.406;6.856;2023-08-01T14:40:58;19.20;99.90
3713;DHT22;1872;51.406;6.856;2023-08-01T14:43:23;19.30;99.90
3713;DHT22;1872;51.406;6.856;2023-08-01T14:45:49;19.20;99.90
3713;DHT22;1872;51.406;6.856;2023-08-01T14:48:15;19.30;99.90
3713;DHT22;1872;51.406;6.856;2023-08-01T14:50:42;19.20;99.90
3713;DHT22;1872;51.406;6.856;2023-08-01T14:53:08;19.10;99.90
3713;DHT22;1872;51.406;6.856;2023-08-01T14:55:34;19.00;99.90
3713;DHT22;1872;51.406;6.856;2023-08-01T14:58:00;19.00;99.90
3713;DHT22;1872;51.406;6.856;2023-08-01T15:00:26;18.90;99.90
3713;DHT22;1872;51.406;6.856;2023-08-01T15:02:51;18.80;99.90
3713;DHT22;1872;51.406;6.856;2023-08-01T15:05:18;18.80;99.90
3713;DHT22;1872;51.406;6.856;2023-08-01T15:07:44;18.70;99.90
3713;DHT22;1872;51.406;6.856;2023-08-01T15:10:10;18.60;99.90
3713;DHT22;1872;51.406;6.856;2023-08-01T15:12:39;18.60;99.90
3713;DHT22;1872;51.406;6.856;2023-08-01T15:15:05;18.50;99.90
3713;DHT22;1872;51.406;6.856;2023-08-01T15:17:31;18.60;99.90
3713;DHT22;1872;51.406;6.856;2023-08-01T15:19:57;18.60;99.90
3713;DHT22;1872;51.406;6.856;2023-08-01T15:22:23;18.70;99.90
3713;DHT22;1872;51.406;6.856;2023-08-01T15:24:49;18.70;99.90
3713;DHT22;1872;51.406;6.856;2023-08-01T15:27:16;18.70;99.90
3713;DHT22;1872;51.406;6.856;2023-08-01T15:29:45;18.70;99.90
3713;DHT22;1872;51.406;6.856;2023-08-01T15:32:12;18.60;99.90
3713;DHT22;1872;51.406;6.856;2023-08-01T15:34:38;18.50;99.90
3713;DHT22;1872;51.406;6.856;2023-08-01T15:37:07;18.60;99.90
3713;DHT22;1872;51.406;6.856;2023-08-01T15:39:34;18.50;99.90
3713;DHT22;1872;51.406;6.856;2023-08-01T15:41:59;18.50;99.90
3713;DHT22;1872;51.406;6.856;2023-08-01T15:44:25;18.60;99.90
3713;DHT22;1872;51.406;6.856;2023-08-01T15:46:51;18.70;99.90
3713;DHT22;1872;51.406;6.856;2023-08-01T15:49:17;18.80;99.90
3713;DHT22;1872;51.406;6.856;2023-08-01T15:51:43;18.80;99.90
3713;DHT22;1872;51.406;6.856;2023-08-01T15:54:08;18.80;99.90
3713;DHT22;1872;51.406;6.856;2023-08-01T15:56:34;18.90;99.90
3713;DHT22;1872;51.406;6.856;2023-08-01T15:59:08;18.90;99.90
3713;DHT22;1872;51.406;6.856;2023-08-01T16:01:34;19.10;99.90
3713;DHT22;1872;51.406;6.856;2023-08-01T16:04:00;19.00;99.90
3713;DHT22;1872;51.406;6.856;2023-08-01T16:06:26;19.10;99.90
3713;DHT22;1872;51.406;6.856;2023-08-01T16:08:51;19.10;99.90
3713;DHT22;1872;51.406;6.856;2023-08-01T16:11:17;19.20;99.90
3713;DHT22;1872;51.406;6.856;2023-08-01T16:13:43;19.20;99.90
3713;DHT22;1872;51.406;6.856;2023-08-01T16:16:08;19.30;99.90